Current Conditions
Mostly Clear
Conditions



Pressure
1026.92 (mb) - 30.32 (inHG)
Visibility

10.0 (km) - 6.2 (miles)
   Temperature
5  °C
Temperature
2  °C
Dewpoint
81  %
 Humidity
   Wind Speed
5  km/h
3  kts
3  mph
1.3  m/s
   Wind Direction
N
45°
E
90°
135°
S
180°
225°
W
270°
315°
 140°

South East
   Airport Data
LEAS
Asturias Airport
Metar :LEAS 120200Z AUTO 14003KT 100V170 CAVOK 05/02 Q1027
Mon 12th April 04:00 am
   Raw Metar Info
Raw METAR is the most common format in the world for the transmission of observational weather data. It is highly standardized through the International Civil Aviation Organization (ICAO), which allows it to be understood throughout most of the world.
   API Info
Data Provided by
https://www.checkwx.com/weather/LEAS

Aviation Weather providing METAR, TAF, AIRMET, SIGMET and OUTLOOK Weather Reports
   © Info
CSS/SVG/PHP scripts were developed by weather34.com for use in the weather34 template © 2015-2021

Guide Info provided by Metar-Wikipedia